sensor_id;sensor_type;location;lat;lon;timestamp;pressure;altitude;pressure_sealevel;temperature;humidity
68366;BME280;55283;51.466;5.478;2023-01-04T00:00:22;101836.28;;;19.74;49.93
68366;BME280;55283;51.466;5.478;2023-01-04T00:02:48;101834.25;;;19.74;49.72
68366;BME280;55283;51.466;5.478;2023-01-04T00:05:13;101816.69;;;19.74;49.55
68366;BME280;55283;51.466;5.478;2023-01-04T00:07:38;101817.91;;;19.73;49.76
68366;BME280;55283;51.466;5.478;2023-01-04T00:10:04;101820.72;;;19.73;49.73
68366;BME280;55283;51.466;5.478;2023-01-04T00:12:29;101807.94;;;19.68;49.87
68366;BME280;55283;51.466;5.478;2023-01-04T00:14:55;101801.53;;;19.71;50.00
68366;BME280;55283;51.466;5.478;2023-01-04T00:17:20;101799.94;;;19.66;49.92
68366;BME280;55283;51.466;5.478;2023-01-04T00:19:45;101793.53;;;19.70;49.76
68366;BME280;55283;51.466;5.478;2023-01-04T00:22:11;101809.50;;;19.73;49.89
68366;BME280;55283;51.466;5.478;2023-01-04T00:24:36;101795.53;;;19.73;49.60
68366;BME280;55283;51.466;5.478;2023-01-04T00:27:02;101793.53;;;19.73;49.66
68366;BME280;55283;51.466;5.478;2023-01-04T00:29:27;101786.31;;;19.72;49.76
68366;BME280;55283;51.466;5.478;2023-01-04T00:31:52;101783.53;;;19.72;49.84
68366;BME280;55283;51.466;5.478;2023-01-04T00:34:18;101775.94;;;19.73;49.81
68366;BME280;55283;51.466;5.478;2023-01-04T00:36:44;101765.56;;;19.70;49.76
68366;BME280;55283;51.466;5.478;2023-01-04T00:39:13;101769.97;;;19.71;49.86
68366;BME280;55283;51.466;5.478;2023-01-04T00:41:48;101746.41;;;19.68;49.60
68366;BME280;55283;51.466;5.478;2023-01-04T00:44:14;101752.03;;;19.64;49.76
68366;BME280;55283;51.466;5.478;2023-01-04T00:46:40;101762.41;;;19.67;49.68
68366;BME280;55283;51.466;5.478;2023-01-04T00:49:07;101738.81;;;19.68;49.52
68366;BME280;55283;51.466;5.478;2023-01-04T00:51:34;101740.38;;;19.70;49.64
68366;BME280;55283;51.466;5.478;2023-01-04T00:54:01;101739.22;;;19.67;49.67
68366;BME280;55283;51.466;5.478;2023-01-04T00:56:29;101721.72;;;19.59;49.70
68366;BME280;55283;51.466;5.478;2023-01-04T00:58:56;101735.19;;;19.72;49.53
68366;BME280;55283;51.466;5.478;2023-01-04T01:01:23;101750.38;;;19.71;49.68
68366;BME280;55283;51.466;5.478;2023-01-04T01:03:52;101733.59;;;19.71;49.62
68366;BME280;55283;51.466;5.478;2023-01-04T01:06:17;101705.28;;;19.65;49.78
68366;BME280;55283;51.466;5.478;2023-01-04T01:08:43;101720.44;;;19.67;49.66
68366;BME280;55283;51.466;5.478;2023-01-04T01:11:09;101706.47;;;19.67;49.49
68366;BME280;55283;51.466;5.478;2023-01-04T01:13:36;101714.41;;;19.69;49.69
68366;BME280;55283;51.466;5.478;2023-01-04T01:16:06;101714.81;;;19.71;49.52
68366;BME280;55283;51.466;5.478;2023-01-04T01:18:37;101700.41;;;19.73;49.51
68366;BME280;55283;51.466;5.478;2023-01-04T01:21:04;101715.22;;;19.70;49.72
68366;BME280;55283;51.466;5.478;2023-01-04T01:23:30;101709.63;;;19.70;49.50
68366;BME280;55283;51.466;5.478;2023-01-04T01:26:00;101703.22;;;19.69;49.63
68366;BME280;55283;51.466;5.478;2023-01-04T01:28:26;101693.69;;;19.63;49.64
68366;BME280;55283;51.466;5.478;2023-01-04T01:30:51;101699.63;;;19.68;49.50
68366;BME280;55283;51.466;5.478;2023-01-04T01:33:17;101700.88;;;19.67;49.63
68366;BME280;55283;51.466;5.478;2023-01-04T01:35:42;101685.75;;;19.58;49.99
68366;BME280;55283;51.466;5.478;2023-01-04T01:38:08;101696.09;;;19.64;49.74
68366;BME280;55283;51.466;5.478;2023-01-04T01:40:33;101686.91;;;19.64;49.46
68366;BME280;55283;51.466;5.478;2023-01-04T01:42:58;101700.88;;;19.67;49.43
68366;BME280;55283;51.466;5.478;2023-01-04T01:45:33;101678.47;;;19.67;49.44
68366;BME280;55283;51.466;5.478;2023-01-04T01:48:06;101684.09;;;19.67;49.64
68366;BME280;55283;51.466;5.478;2023-01-04T01:50:42;101676.09;;;19.66;49.60
68366;BME280;55283;51.466;5.478;2023-01-04T01:53:10;101678.53;;;19.60;49.51
68366;BME280;55283;51.466;5.478;2023-01-04T01:55:36;101683.34;;;19.60;49.71
68366;BME280;55283;51.466;5.478;2023-01-04T01:58:05;101691.69;;;19.63;49.67
68366;BME280;55283;51.466;5.478;2023-01-04T02:00:32;101667.78;;;19.59;49.60
68366;BME280;55283;51.466;5.478;2023-01-04T02:03:15;101687.28;;;19.66;49.39
68366;BME280;55283;51.466;5.478;2023-01-04T02:05:44;101682.84;;;19.68;49.49
68366;BME280;55283;51.466;5.478;2023-01-04T02:08:12;101675.69;;;19.67;49.39
68366;BME280;55283;51.466;5.478;2023-01-04T02:10:39;101669.72;;;19.65;49.68
68366;BME280;55283;51.466;5.478;2023-01-04T02:13:08;101682.47;;;19.66;49.38
68366;BME280;55283;51.466;5.478;2023-01-04T02:15:58;101672.50;;;19.65;49.45
68366;BME280;55283;51.466;5.478;2023-01-04T02:18:36;101673.34;;;19.62;49.56
68366;BME280;55283;51.466;5.478;2023-01-04T02:21:14;101661.00;;;19.56;49.64
68366;BME280;55283;51.466;5.478;2023-01-04T02:31:57;101664.94;;;19.62;49.53
68366;BME280;55283;51.466;5.478;2023-01-04T02:37:15;101667.34;;;19.60;49.70
68366;BME280;55283;51.466;5.478;2023-01-04T02:42:42;101671.38;;;19.59;49.57
68366;BME280;55283;51.466;5.478;2023-01-04T02:45:35;101639.81;;;19.59;49.63
68366;BME280;55283;51.466;5.478;2023-01-04T02:48:04;101626.25;;;19.57;49.52
68366;BME280;55283;51.466;5.478;2023-01-04T02:50:54;101641.81;;;19.58;49.35
68366;BME280;55283;51.466;5.478;2023-01-04T02:53:30;101627.03;;;19.58;49.81
68366;BME280;55283;51.466;5.478;2023-01-04T03:08:04;101609.06;;;19.59;49.37
68366;BME280;55283;51.466;5.478;2023-01-04T03:10:47;101601.44;;;19.59;49.60
68366;BME280;55283;51.466;5.478;2023-01-04T03:13:22;101602.66;;;19.58;49.43
68366;BME280;55283;51.466;5.478;2023-01-04T03:15:58;101595.09;;;19.55;49.42
68366;BME280;55283;51.466;5.478;2023-01-04T03:18:30;101581.09;;;19.55;49.28
68366;BME280;55283;51.466;5.478;2023-01-04T03:21:00;101585.91;;;19.58;49.39
68366;BME280;55283;51.466;5.478;2023-01-04T03:23:29;101578.31;;;19.55;49.54
68366;BME280;55283;51.466;5.478;2023-01-04T03:26:22;101577.91;;;19.57;49.48
68366;BME280;55283;51.466;5.478;2023-01-04T03:29:24;101581.50;;;19.57;49.54
68366;BME280;55283;51.466;5.478;2023-01-04T03:32:20;101595.47;;;19.57;49.37
68366;BME280;55283;51.466;5.478;2023-01-04T03:35:05;101581.09;;;19.55;49.54
68366;BME280;55283;51.466;5.478;2023-01-04T03:38:01;101593.47;;;19.54;49.27
68366;BME280;55283;51.466;5.478;2023-01-04T03:44:22;101575.50;;;19.55;49.51
68366;BME280;55283;51.466;5.478;2023-01-04T03:47:33;101576.75;;;19.51;49.41
68366;BME280;55283;51.466;5.478;2023-01-04T03:50:27;101560.38;;;19.49;49.59
68366;BME280;55283;51.466;5.478;2023-01-04T03:52:54;101549.19;;;19.49;49.55
68366;BME280;55283;51.466;5.478;2023-01-04T03:55:21;101554.78;;;19.49;49.48
68366;BME280;55283;51.466;5.478;2023-01-04T03:57:47;101543.59;;;19.49;49.55
68366;BME280;55283;51.466;5.478;2023-01-04T04:00:16;101536.75;;;19.54;49.40
68366;BME280;55283;51.466;5.478;2023-01-04T04:02:47;101541.97;;;19.52;49.57
68366;BME280;55283;51.466;5.478;2023-01-04T04:05:20;101546.72;;;19.55;49.46
68366;BME280;55283;51.466;5.478;2023-01-04T04:08:04;101551.13;;;19.56;49.34
68366;BME280;55283;51.466;5.478;2023-01-04T04:10:48;101534.75;;;19.54;49.36
68366;BME280;55283;51.466;5.478;2023-01-04T04:13:13;101541.94;;;19.55;49.45
68366;BME280;55283;51.466;5.478;2023-01-04T04:15:38;101531.56;;;19.56;49.40
68366;BME280;55283;51.466;5.478;2023-01-04T04:18:04;101546.34;;;19.56;49.54
68366;BME280;55283;51.466;5.478;2023-01-04T04:20:30;101525.19;;;19.55;49.59
68366;BME280;55283;51.466;5.478;2023-01-04T04:22:55;101526.78;;;19.56;49.23
68366;BME280;55283;51.466;5.478;2023-01-04T04:25:20;101511.16;;;19.59;49.25
68366;BME280;55283;51.466;5.478;2023-01-04T04:27:46;101498.81;;;19.56;49.36
68366;BME280;55283;51.466;5.478;2023-01-04T04:30:11;101504.78;;;19.55;49.18
68366;BME280;55283;51.466;5.478;2023-01-04T04:32:37;101504.03;;;19.51;49.20
68366;BME280;55283;51.466;5.478;2023-01-04T04:35:03;101505.56;;;19.59;49.37
68366;BME280;55283;51.466;5.478;2023-01-04T04:37:28;101497.97;;;19.59;49.45
68366;BME280;55283;51.466;5.478;2023-01-04T04:39:59;101495.19;;;19.59;49.28
68366;BME280;55283;51.466;5.478;2023-01-04T04:42:25;101491.22;;;19.57;49.26
68366;BME280;55283;51.466;5.478;2023-01-04T04:44:50;101495.59;;;19.54;49.46
68366;BME280;55283;51.466;5.478;2023-01-04T04:47:15;101484.00;;;19.56;49.17
68366;BME280;55283;51.466;5.478;2023-01-04T04:49:41;101475.22;;;19.57;49.30
68366;BME280;55283;51.466;5.478;2023-01-04T04:52:06;101474.03;;;19.58;49.39
68366;BME280;55283;51.466;5.478;2023-01-04T04:54:32;101471.66;;;19.53;49.52
68366;BME280;55283;51.466;5.478;2023-01-04T04:56:58;101479.63;;;19.58;49.28
68366;BME280;55283;51.466;5.478;2023-01-04T04:59:23;101470.84;;;19.56;49.53
68366;BME280;55283;51.466;5.478;2023-01-04T05:01:48;101472.41;;;19.57;49.52
68366;BME280;55283;51.466;5.478;2023-01-04T05:04:14;101488.00;;;19.58;49.13
68366;BME280;55283;51.466;5.478;2023-01-04T05:06:45;101467.22;;;19.59;49.33
68366;BME280;55283;51.466;5.478;2023-01-04T05:09:12;101478.81;;;19.54;49.42
68366;BME280;55283;51.466;5.478;2023-01-04T05:11:37;101456.88;;;19.53;49.13
68366;BME280;55283;51.466;5.478;2023-01-04T05:14:21;101464.81;;;19.58;49.23
68366;BME280;55283;51.466;5.478;2023-01-04T05:16:47;101474.84;;;19.55;49.41
68366;BME280;55283;51.466;5.478;2023-01-04T05:19:12;101453.25;;;19.56;49.42
68366;BME280;55283;51.466;5.478;2023-01-04T05:21:38;101453.63;;;19.58;49.49
68366;BME280;55283;51.466;5.478;2023-01-04T05:24:05;101443.75;;;19.50;49.20
68366;BME280;55283;51.466;5.478;2023-01-04T05:26:31;101451.28;;;19.56;49.34
68366;BME280;55283;51.466;5.478;2023-01-04T05:28:56;101427.75;;;19.50;49.27
68366;BME280;55283;51.466;5.478;2023-01-04T05:31:21;101434.50;;;19.56;49.27
68366;BME280;55283;51.466;5.478;2023-01-04T05:33:47;101441.66;;;19.57;49.45
68366;BME280;55283;51.466;5.478;2023-01-04T05:36:12;101441.28;;;19.55;49.38
68366;BME280;55283;51.466;5.478;2023-01-04T05:38:38;101437.66;;;19.58;49.37
68366;BME280;55283;51.466;5.478;2023-01-04T05:41:03;101432.47;;;19.57;49.33
68366;BME280;55283;51.466;5.478;2023-01-04T05:43:49;101424.47;;;19.59;49.30
68366;BME280;55283;51.466;5.478;2023-01-04T05:46:14;101426.09;;;19.56;49.37
68366;BME280;55283;51.466;5.478;2023-01-04T05:48:39;101424.09;;;19.57;49.00
68366;BME280;55283;51.466;5.478;2023-01-04T05:51:05;101418.91;;;19.55;49.26
68366;BME280;55283;51.466;5.478;2023-01-04T05:53:30;101417.34;;;19.51;49.14
68366;BME280;55283;51.466;5.478;2023-01-04T05:55:55;101416.50;;;19.57;49.37
68366;BME280;55283;51.466;5.478;2023-01-04T05:58:21;101406.53;;;19.56;49.16
68366;BME280;55283;51.466;5.478;2023-01-04T06:00:46;101418.91;;;19.55;49.35
68366;BME280;55283;51.466;5.478;2023-01-04T06:03:12;101412.56;;;19.51;49.29
68366;BME280;55283;51.466;5.478;2023-01-04T06:05:37;101404.09;;;19.55;49.21
68366;BME280;55283;51.466;5.478;2023-01-04T06:08:03;101414.09;;;19.56;49.11
68366;BME280;55283;51.466;5.478;2023-01-04T06:10:28;101424.09;;;19.57;49.21
68366;BME280;55283;51.466;5.478;2023-01-04T06:12:54;101414.16;;;19.52;49.48
68366;BME280;55283;51.466;5.478;2023-01-04T06:15:19;101423.31;;;19.56;49.16
68366;BME280;55283;51.466;5.478;2023-01-04T06:17:45;101412.50;;;19.55;49.18
68366;BME280;55283;51.466;5.478;2023-01-04T06:20:10;101414.47;;;19.58;49.27
68366;BME280;55283;51.466;5.478;2023-01-04T06:22:36;101428.09;;;19.56;49.26
68366;BME280;55283;51.466;5.478;2023-01-04T06:25:02;101423.69;;;19.55;49.40
68366;BME280;55283;51.466;5.478;2023-01-04T06:27:28;101440.09;;;19.56;49.43
68366;BME280;55283;51.466;5.478;2023-01-04T06:29:53;101428.91;;;19.56;49.30
68366;BME280;55283;51.466;5.478;2023-01-04T06:32:19;101437.66;;;19.58;49.19
68366;BME280;55283;51.466;5.478;2023-01-04T06:34:44;101425.25;;;19.59;49.66
68366;BME280;55283;51.466;5.478;2023-01-04T06:37:10;101426.03;;;19.60;49.50
68366;BME280;55283;51.466;5.478;2023-01-04T06:39:36;101408.59;;;19.49;49.79
68366;BME280;55283;51.466;5.478;2023-01-04T06:42:02;101400.19;;;19.52;50.01
68366;BME280;55283;51.466;5.478;2023-01-04T06:44:27;101404.22;;;19.48;50.07
68366;BME280;55283;51.466;5.478;2023-01-04T06:46:52;101409.44;;;19.45;50.48
68366;BME280;55283;51.466;5.478;2023-01-04T06:49:18;101414.69;;;19.43;50.72
68366;BME280;55283;51.466;5.478;2023-01-04T06:51:44;101407.47;;;19.42;50.80
68366;BME280;55283;51.466;5.478;2023-01-04T06:54:09;101410.66;;;19.44;50.83
68366;BME280;55283;51.466;5.478;2023-01-04T06:56:36;101405.44;;;19.47;50.64
68366;BME280;55283;51.466;5.478;2023-01-04T06:59:01;101431.69;;;19.56;50.88
68366;BME280;55283;51.466;5.478;2023-01-04T07:01:27;101408.47;;;19.59;50.54
68366;BME280;55283;51.466;5.478;2023-01-04T07:03:52;101400.09;;;19.59;51.03
68366;BME280;55283;51.466;5.478;2023-01-04T07:06:17;101409.50;;;19.73;51.17
68366;BME280;55283;51.466;5.478;2023-01-04T07:08:43;101397.47;;;19.76;51.29
68366;BME280;55283;51.466;5.478;2023-01-04T07:11:08;101390.69;;;19.73;50.85
68366;BME280;55283;51.466;5.478;2023-01-04T07:13:34;101390.31;;;19.71;50.70
68366;BME280;55283;51.466;5.478;2023-01-04T07:15:59;101410.03;;;19.64;48.70
68366;BME280;55283;51.466;5.478;2023-01-04T07:18:25;101396.84;;;19.61;49.10
68366;BME280;55283;51.466;5.478;2023-01-04T07:20:50;101368.94;;;19.57;49.90
68366;BME280;55283;51.466;5.478;2023-01-04T07:23:15;101384.16;;;19.56;50.66
68366;BME280;55283;51.466;5.478;2023-01-04T07:25:41;101380.63;;;19.49;49.72
68366;BME280;55283;51.466;5.478;2023-01-04T07:28:07;101381.91;;;19.44;49.26
68366;BME280;55283;51.466;5.478;2023-01-04T07:30:33;101368.88;;;19.34;49.07
68366;BME280;55283;51.466;5.478;2023-01-04T07:32:58;101357.31;;;19.32;49.13
68366;BME280;55283;51.466;5.478;2023-01-04T07:35:24;101367.97;;;19.40;48.51
68366;BME280;55283;51.466;5.478;2023-01-04T07:37:49;101358.44;;;19.38;48.94
68366;BME280;55283;51.466;5.478;2023-01-04T07:40:15;101355.34;;;19.29;49.46
68366;BME280;55283;51.466;5.478;2023-01-04T07:42:41;101354.56;;;19.28;50.43
68366;BME280;55283;51.466;5.478;2023-01-04T07:45:07;101353.00;;;19.27;50.45
68366;BME280;55283;51.466;5.478;2023-01-04T07:47:32;101359.75;;;19.30;50.71
68366;BME280;55283;51.466;5.478;2023-01-04T07:49:58;101360.78;;;19.39;50.54
68366;BME280;55283;51.466;5.478;2023-01-04T07:52:25;101348.38;;;19.44;49.86
68366;BME280;55283;51.466;5.478;2023-01-04T07:54:50;101359.16;;;19.42;50.01
68366;BME280;55283;51.466;5.478;2023-01-04T07:57:16;101347.25;;;19.38;50.07
68366;BME280;55283;51.466;5.478;2023-01-04T07:59:41;101339.19;;;19.43;50.14
68366;BME280;55283;51.466;5.478;2023-01-04T08:02:10;101349.53;;;19.47;49.92
68366;BME280;55283;51.466;5.478;2023-01-04T08:04:35;101343.97;;;19.43;50.24
68366;BME280;55283;51.466;5.478;2023-01-04T08:07:01;101340.31;;;19.46;50.23
68366;BME280;55283;51.466;5.478;2023-01-04T08:09:27;101339.97;;;19.44;49.97
68366;BME280;55283;51.466;5.478;2023-01-04T08:11:52;101363.53;;;19.43;49.84
68366;BME280;55283;51.466;5.478;2023-01-04T08:14:17;101334.59;;;19.30;50.19
68366;BME280;55283;51.466;5.478;2023-01-04T08:16:43;101348.91;;;19.32;51.00
68366;BME280;55283;51.466;5.478;2023-01-04T08:19:17;101364.91;;;19.31;50.87
68366;BME280;55283;51.466;5.478;2023-01-04T08:21:43;101363.59;;;19.39;50.83
68366;BME280;55283;51.466;5.478;2023-01-04T08:24:13;101376.00;;;19.38;50.87
68366;BME280;55283;51.466;5.478;2023-01-04T08:26:39;101367.19;;;19.40;50.90
68366;BME280;55283;51.466;5.478;2023-01-04T08:29:04;101375.41;;;19.51;50.31
68366;BME280;55283;51.466;5.478;2023-01-04T08:31:31;101357.94;;;19.43;50.85
68366;BME280;55283;51.466;5.478;2023-01-04T08:34:00;101364.28;;;19.47;50.93
68366;BME280;55283;51.466;5.478;2023-01-04T08:36:28;101371.41;;;19.52;50.49
68366;BME280;55283;51.466;5.478;2023-01-04T08:39:04;101383.81;;;19.51;50.24
68366;BME280;55283;51.466;5.478;2023-01-04T08:41:33;101367.50;;;19.45;50.45
68366;BME280;55283;51.466;5.478;2023-01-04T08:44:17;101379.06;;;19.48;50.87
68366;BME280;55283;51.466;5.478;2023-01-04T08:46:43;101367.88;;;19.48;50.61
68366;BME280;55283;51.466;5.478;2023-01-04T08:49:09;101357.91;;;19.47;50.52
68366;BME280;55283;51.466;5.478;2023-01-04T08:51:34;101370.22;;;19.49;50.82
68366;BME280;55283;51.466;5.478;2023-01-04T08:54:00;101383.03;;;19.50;50.71
68366;BME280;55283;51.466;5.478;2023-01-04T08:56:25;101377.81;;;19.52;50.14
68366;BME280;55283;51.466;5.478;2023-01-04T08:58:50;101383.81;;;19.51;50.40
68366;BME280;55283;51.466;5.478;2023-01-04T09:01:16;101384.59;;;19.51;50.10
68366;BME280;55283;51.466;5.478;2023-01-04T09:03:41;101386.19;;;19.52;50.50
68366;BME280;55283;51.466;5.478;2023-01-04T09:06:10;101394.22;;;19.50;50.86
68366;BME280;55283;51.466;5.478;2023-01-04T09:08:37;101378.16;;;19.54;50.55
68366;BME280;55283;51.466;5.478;2023-01-04T09:11:06;101393.75;;;19.55;50.68
68366;BME280;55283;51.466;5.478;2023-01-04T09:13:33;101380.94;;;19.54;50.65
68366;BME280;55283;51.466;5.478;2023-01-04T09:16:00;101372.22;;;19.52;49.48
68366;BME280;55283;51.466;5.478;2023-01-04T09:18:26;101383.75;;;19.54;49.42
68366;BME280;55283;51.466;5.478;2023-01-04T09:20:52;101387.00;;;19.49;49.00
68366;BME280;55283;51.466;5.478;2023-01-04T09:23:17;101376.59;;;19.53;49.11
68366;BME280;55283;51.466;5.478;2023-01-04T09:25:42;101374.19;;;19.52;49.31
68366;BME280;55283;51.466;5.478;2023-01-04T09:28:08;101385.75;;;19.54;49.25
68366;BME280;55283;51.466;5.478;2023-01-04T09:30:34;101384.19;;;19.53;49.49
68366;BME280;55283;51.466;5.478;2023-01-04T09:32:59;101370.91;;;19.60;49.14
68366;BME280;55283;51.466;5.478;2023-01-04T09:35:24;101392.47;;;19.60;49.46
68366;BME280;55283;51.466;5.478;2023-01-04T09:37:50;101371.69;;;19.61;49.18
68366;BME280;55283;51.466;5.478;2023-01-04T09:40:21;101380.44;;;19.63;49.35
68366;BME280;55283;51.466;5.478;2023-01-04T09:42:48;101377.66;;;19.63;49.29
68366;BME280;55283;51.466;5.478;2023-01-04T09:45:20;101368.53;;;19.59;49.30
68366;BME280;55283;51.466;5.478;2023-01-04T09:50:49;101379.72;;;19.59;49.43
68366;BME280;55283;51.466;5.478;2023-01-04T09:53:20;101382.53;;;19.59;49.55
68366;BME280;55283;51.466;5.478;2023-01-04T09:55:49;101362.50;;;19.60;49.68
68366;BME280;55283;51.466;5.478;2023-01-04T09:58:35;101378.94;;;19.55;49.54
68366;BME280;55283;51.466;5.478;2023-01-04T10:01:07;101367.75;;;19.55;49.71
68366;BME280;55283;51.466;5.478;2023-01-04T10:03:37;101368.56;;;19.55;49.63
68366;BME280;55283;51.466;5.478;2023-01-04T10:06:06;101369.09;;;19.47;49.67
68366;BME280;55283;51.466;5.478;2023-01-04T10:08:34;101347.56;;;19.43;49.83
68366;BME280;55283;51.466;5.478;2023-01-04T10:11:09;101356.63;;;19.51;49.87
68366;BME280;55283;51.466;5.478;2023-01-04T10:20:03;101354.50;;;19.62;49.61
68366;BME280;55283;51.466;5.478;2023-01-04T10:30:57;101359.03;;;19.53;50.43
68366;BME280;55283;51.466;5.478;2023-01-04T10:36:12;101338.13;;;19.61;50.53
68366;BME280;55283;51.466;5.478;2023-01-04T10:38:38;101356.56;;;19.55;50.98
68366;BME280;55283;51.466;5.478;2023-01-04T10:41:09;101349.78;;;19.56;50.63
68366;BME280;55283;51.466;5.478;2023-01-04T10:46:58;101339.06;;;19.51;51.14
68366;BME280;55283;51.466;5.478;2023-01-04T10:49:43;101350.66;;;19.49;51.22
68366;BME280;55283;51.466;5.478;2023-01-04T10:52:18;101315.16;;;19.46;51.18
68366;BME280;55283;51.466;5.478;2023-01-04T10:57:54;101327.88;;;19.51;50.70
68366;BME280;55283;51.466;5.478;2023-01-04T11:00:29;101344.56;;;19.58;50.94
68366;BME280;55283;51.466;5.478;2023-01-04T11:10:46;101327.31;;;19.63;50.75
68366;BME280;55283;51.466;5.478;2023-01-04T11:13:14;101317.41;;;19.58;51.17
68366;BME280;55283;51.466;5.478;2023-01-04T11:15:39;101335.38;;;19.57;51.30
68366;BME280;55283;51.466;5.478;2023-01-04T11:18:06;101337.72;;;19.62;51.22
68366;BME280;55283;51.466;5.478;2023-01-04T11:20:33;101325.09;;;19.51;51.46
68366;BME280;55283;51.466;5.478;2023-01-04T11:23:06;101324.69;;;19.52;51.72
68366;BME280;55283;51.466;5.478;2023-01-04T11:25:39;101322.69;;;19.49;51.63
68366;BME280;55283;51.466;5.478;2023-01-04T11:28:35;101335.97;;;19.45;52.00
68366;BME280;55283;51.466;5.478;2023-01-04T11:31:23;101333.53;;;19.47;51.90
68366;BME280;55283;51.466;5.478;2023-01-04T11:33:57;101336.66;;;19.53;51.55
68366;BME280;55283;51.466;5.478;2023-01-04T11:36:43;101339.84;;;19.51;51.75
68366;BME280;55283;51.466;5.478;2023-01-04T11:39:25;101315.66;;;19.41;51.77
68366;BME280;55283;51.466;5.478;2023-01-04T11:41:55;101319.91;;;19.49;51.76
68366;BME280;55283;51.466;5.478;2023-01-04T11:44:25;101316.84;;;19.40;52.16
68366;BME280;55283;51.466;5.478;2023-01-04T11:47:17;101332.44;;;19.41;52.01
68366;BME280;55283;51.466;5.478;2023-01-04T11:49:43;101339.47;;;19.49;52.30
68366;BME280;55283;51.466;5.478;2023-01-04T11:52:31;101338.97;;;19.58;52.00
68366;BME280;55283;51.466;5.478;2023-01-04T11:55:24;101329.81;;;19.57;52.19
68366;BME280;55283;51.466;5.478;2023-01-04T11:58:15;101343.72;;;19.61;51.93
68366;BME280;55283;51.466;5.478;2023-01-04T12:00:53;101340.88;;;19.64;51.65
68366;BME280;55283;51.466;5.478;2023-01-04T12:03:30;101332.53;;;19.61;51.88
68366;BME280;55283;51.466;5.478;2023-01-04T12:05:58;101330.97;;;19.60;51.69
68366;BME280;55283;51.466;5.478;2023-01-04T12:08:31;101328.59;;;19.58;51.78
68366;BME280;55283;51.466;5.478;2023-01-04T12:11:05;101333.84;;;19.53;52.10
68366;BME280;55283;51.466;5.478;2023-01-04T12:13:32;101339.44;;;19.53;51.86
68366;BME280;55283;51.466;5.478;2023-01-04T12:18:45;101335.38;;;19.57;51.90
68366;BME280;55283;51.466;5.478;2023-01-04T12:21:22;101327.47;;;19.52;52.06
68366;BME280;55283;51.466;5.478;2023-01-04T12:23:49;101331.84;;;19.53;51.68
68366;BME280;55283;51.466;5.478;2023-01-04T12:26:16;101335.47;;;19.50;52.04
68366;BME280;55283;51.466;5.478;2023-01-04T12:28:47;101333.09;;;19.49;51.90
68366;BME280;55283;51.466;5.478;2023-01-04T12:31:34;101352.63;;;19.52;52.21
68366;BME280;55283;51.466;5.478;2023-01-04T12:47:01;101316.56;;;19.61;51.85
68366;BME280;55283;51.466;5.478;2023-01-04T12:54:54;101322.56;;;19.60;51.90
68366;BME280;55283;51.466;5.478;2023-01-04T12:57:30;101305.00;;;19.59;52.02
68366;BME280;55283;51.466;5.478;2023-01-04T13:00:08;101318.84;;;19.66;51.96
68366;BME280;55283;51.466;5.478;2023-01-04T13:02:37;101310.06;;;19.68;52.04
68366;BME280;55283;51.466;5.478;2023-01-04T13:07:46;101294.53;;;19.63;52.06
68366;BME280;55283;51.466;5.478;2023-01-04T13:15:42;101298.88;;;19.68;51.82
68366;BME280;55283;51.466;5.478;2023-01-04T13:20:49;101310.00;;;19.72;52.06
68366;BME280;55283;51.466;5.478;2023-01-04T13:23:16;101308.34;;;19.74;51.57
68366;BME280;55283;51.466;5.478;2023-01-04T13:25:41;101302.38;;;19.72;51.61
68366;BME280;55283;51.466;5.478;2023-01-04T13:28:15;101302.44;;;19.68;51.75
68366;BME280;55283;51.466;5.478;2023-01-04T13:30:41;101308.41;;;19.71;51.60
68366;BME280;55283;51.466;5.478;2023-01-04T13:33:16;101309.22;;;19.71;51.46
68366;BME280;55283;51.466;5.478;2023-01-04T13:35:43;101310.00;;;19.72;51.37
68366;BME280;55283;51.466;5.478;2023-01-04T13:38:14;101310.06;;;19.68;51.45
68366;BME280;55283;51.466;5.478;2023-01-04T13:40:45;101309.59;;;19.73;51.34
68366;BME280;55283;51.466;5.478;2023-01-04T13:48:23;101306.41;;;19.71;51.28
68366;BME280;55283;51.466;5.478;2023-01-04T13:54:02;101291.75;;;19.63;51.61
68366;BME280;55283;51.466;5.478;2023-01-04T13:56:31;101300.09;;;19.67;51.56
68366;BME280;55283;51.466;5.478;2023-01-04T13:58:57;101304.53;;;19.64;51.57
68366;BME280;55283;51.466;5.478;2023-01-04T14:01:32;101298.50;;;19.66;51.64
68366;BME280;55283;51.466;5.478;2023-01-04T14:04:16;101313.25;;;19.66;51.44
68366;BME280;55283;51.466;5.478;2023-01-04T14:06:46;101306.47;;;19.67;51.96
68366;BME280;55283;51.466;5.478;2023-01-04T14:09:16;101298.50;;;19.66;51.56
68366;BME280;55283;51.466;5.478;2023-01-04T14:11:50;101302.91;;;19.67;51.24
68366;BME280;55283;51.466;5.478;2023-01-04T14:17:11;101292.91;;;19.66;51.19
68366;BME280;55283;51.466;5.478;2023-01-04T14:20:02;101296.47;;;19.66;51.42
68366;BME280;55283;51.466;5.478;2023-01-04T14:22:49;101293.69;;;19.66;51.92
68366;BME280;55283;51.466;5.478;2023-01-04T14:38:36;101277.88;;;19.56;51.65
68366;BME280;55283;51.466;5.478;2023-01-04T14:41:15;101279.41;;;19.61;51.52
68366;BME280;55283;51.466;5.478;2023-01-04T14:43:45;101281.78;;;19.62;51.52
68366;BME280;55283;51.466;5.478;2023-01-04T14:46:11;101282.16;;;19.64;51.49
68366;BME280;55283;51.466;5.478;2023-01-04T14:48:37;101284.94;;;19.64;51.52
68366;BME280;55283;51.466;5.478;2023-01-04T14:51:03;101288.16;;;19.63;52.10
68366;BME280;55283;51.466;5.478;2023-01-04T14:53:29;101281.72;;;19.66;51.49
68366;BME280;55283;51.466;5.478;2023-01-04T14:55:55;101279.00;;;19.62;51.52
68366;BME280;55283;51.466;5.478;2023-01-04T14:58:21;101278.56;;;19.64;51.85
68366;BME280;55283;51.466;5.478;2023-01-04T15:00:46;101280.06;;;19.68;51.40
68366;BME280;55283;51.466;5.478;2023-01-04T15:03:12;101287.75;;;19.64;51.65